sensor_id;sensor_type;location;lat;lon;timestamp;pressure;altitude;pressure_sealevel;temperature;humidity
62800;BME280;48842;51.046;13.796;2023-02-13T00:02:23;102561.06;;;9.43;70.54
62800;BME280;48842;51.046;13.796;2023-02-13T00:04:48;102552.41;;;9.44;70.38
62800;BME280;48842;51.046;13.796;2023-02-13T00:07:13;102552.41;;;9.44;70.30
62800;BME280;48842;51.046;13.796;2023-02-13T00:09:39;102561.97;;;9.43;70.38
62800;BME280;48842;51.046;13.796;2023-02-13T00:12:05;102552.41;;;9.44;70.34
62800;BME280;48842;51.046;13.796;2023-02-13T00:14:34;102551.53;;;9.43;70.52
62800;BME280;48842;51.046;13.796;2023-02-13T00:16:59;102553.22;;;9.43;70.49
62800;BME280;48842;51.046;13.796;2023-02-13T00:19:24;102544.50;;;9.42;70.28
62800;BME280;48842;51.046;13.796;2023-02-13T00:21:49;102537.53;;;9.43;70.59
62800;BME280;48842;51.046;13.796;2023-02-13T00:24:15;102539.25;;;9.42;70.45
62800;BME280;48842;51.046;13.796;2023-02-13T00:26:40;102541.88;;;9.42;70.52
62800;BME280;48842;51.046;13.796;2023-02-13T00:29:05;102534.91;;;9.43;70.61
62800;BME280;48842;51.046;13.796;2023-02-13T00:31:31;102533.13;;;9.42;70.45
62800;BME280;48842;51.046;13.796;2023-02-13T00:33:56;102543.59;;;9.42;70.72
62800;BME280;48842;51.046;13.796;2023-02-13T00:36:22;102533.13;;;9.42;70.75
62800;BME280;48842;51.046;13.796;2023-02-13T00:38:48;102540.13;;;9.43;70.74
62800;BME280;48842;51.046;13.796;2023-02-13T00:41:14;102541.94;;;9.44;70.42
62800;BME280;48842;51.046;13.796;2023-02-13T00:43:41;102544.56;;;9.44;70.57
62800;BME280;48842;51.046;13.796;2023-02-13T00:46:06;102538.38;;;9.42;70.51
62800;BME280;48842;51.046;13.796;2023-02-13T00:48:33;102539.25;;;9.42;70.48
62800;BME280;48842;51.046;13.796;2023-02-13T00:50:58;102537.44;;;9.41;70.63
62800;BME280;48842;51.046;13.796;2023-02-13T00:53:25;102534.84;;;9.41;70.44
62800;BME280;48842;51.046;13.796;2023-02-13T00:55:51;102537.44;;;9.41;70.53
62800;BME280;48842;51.046;13.796;2023-02-13T00:58:17;102541.00;;;9.42;70.51
62800;BME280;48842;51.046;13.796;2023-02-13T01:00:43;102540.00;;;9.40;70.45
62800;BME280;48842;51.046;13.796;2023-02-13T01:03:08;102538.25;;;9.39;70.77
62800;BME280;48842;51.046;13.796;2023-02-13T01:05:34;102539.88;;;9.37;70.62
62800;BME280;48842;51.046;13.796;2023-02-13T01:07:59;102545.09;;;9.37;70.81
62800;BME280;48842;51.046;13.796;2023-02-13T01:10:25;102547.72;;;9.37;70.63
62800;BME280;48842;51.046;13.796;2023-02-13T01:12:51;102548.59;;;9.37;70.87
62800;BME280;48842;51.046;13.796;2023-02-13T01:15:16;102541.75;;;9.39;70.69
62800;BME280;48842;51.046;13.796;2023-02-13T01:17:41;102539.94;;;9.38;70.67
62800;BME280;48842;51.046;13.796;2023-02-13T01:20:08;102546.91;;;9.38;70.73
62800;BME280;48842;51.046;13.796;2023-02-13T01:22:34;102534.63;;;9.37;70.55
62800;BME280;48842;51.046;13.796;2023-02-13T01:25:00;102546.91;;;9.38;70.60
62800;BME280;48842;51.046;13.796;2023-02-13T01:27:26;102539.94;;;9.38;70.50
62800;BME280;48842;51.046;13.796;2023-02-13T01:29:52;102541.66;;;9.38;70.51
62800;BME280;48842;51.046;13.796;2023-02-13T01:32:17;102533.75;;;9.36;70.41
62800;BME280;48842;51.046;13.796;2023-02-13T01:34:42;102544.22;;;9.36;70.57
62800;BME280;48842;51.046;13.796;2023-02-13T01:37:07;102536.38;;;9.36;70.55
62800;BME280;48842;51.046;13.796;2023-02-13T01:39:32;102537.19;;;9.35;70.44
62800;BME280;48842;51.046;13.796;2023-02-13T01:41:58;102529.41;;;9.37;70.40
62800;BME280;48842;51.046;13.796;2023-02-13T01:44:46;102526.72;;;9.35;70.55
62800;BME280;48842;51.046;13.796;2023-02-13T01:47:17;102526.78;;;9.37;70.49
62800;BME280;48842;51.046;13.796;2023-02-13T01:49:45;102529.41;;;9.37;70.48
62800;BME280;48842;51.046;13.796;2023-02-13T01:52:13;102529.41;;;9.37;70.37
62800;BME280;48842;51.046;13.796;2023-02-13T01:54:39;102525.06;;;9.37;70.54
62800;BME280;48842;51.046;13.796;2023-02-13T01:57:13;102517.16;;;9.36;70.43
62800;BME280;48842;51.046;13.796;2023-02-13T01:59:51;102526.72;;;9.35;70.27
62800;BME280;48842;51.046;13.796;2023-02-13T02:02:18;102525.00;;;9.36;70.40
62800;BME280;48842;51.046;13.796;2023-02-13T02:04:44;102529.41;;;9.37;70.43
62800;BME280;48842;51.046;13.796;2023-02-13T02:07:19;102518.94;;;9.37;70.27
62800;BME280;48842;51.046;13.796;2023-02-13T02:09:45;102524.19;;;9.37;70.27
62800;BME280;48842;51.046;13.796;2023-02-13T02:14:42;102518.94;;;9.37;70.33
62800;BME280;48842;51.046;13.796;2023-02-13T02:17:08;102518.94;;;9.37;70.11
62800;BME280;48842;51.046;13.796;2023-02-13T02:19:38;102510.16;;;9.35;70.26
62800;BME280;48842;51.046;13.796;2023-02-13T02:25:00;102511.03;;;9.35;70.21
62800;BME280;48842;51.046;13.796;2023-02-13T02:27:54;102513.59;;;9.34;70.16
62800;BME280;48842;51.046;13.796;2023-02-13T02:30:41;102513.44;;;9.31;70.42
62800;BME280;48842;51.046;13.796;2023-02-13T02:39:03;102514.25;;;9.30;70.34
62800;BME280;48842;51.046;13.796;2023-02-13T02:41:44;102518.69;;;9.31;70.32
62800;BME280;48842;51.046;13.796;2023-02-13T02:49:50;102516.06;;;9.31;70.01
62800;BME280;48842;51.046;13.796;2023-02-13T02:55:48;102519.50;;;9.30;69.99
62800;BME280;48842;51.046;13.796;2023-02-13T02:58:22;102520.41;;;9.30;70.20
62800;BME280;48842;51.046;13.796;2023-02-13T03:01:15;102522.94;;;9.29;70.17
62800;BME280;48842;51.046;13.796;2023-02-13T03:04:02;102516.00;;;9.29;70.25
62800;BME280;48842;51.046;13.796;2023-02-13T03:06:55;102514.25;;;9.30;70.13
62800;BME280;48842;51.046;13.796;2023-02-13T03:09:33;102516.88;;;9.30;70.35
62800;BME280;48842;51.046;13.796;2023-02-13T03:12:21;102514.25;;;9.30;70.31
62800;BME280;48842;51.046;13.796;2023-02-13T03:15:06;102523.91;;;9.31;70.24
62800;BME280;48842;51.046;13.796;2023-02-13T03:17:31;102516.06;;;9.31;70.08
62800;BME280;48842;51.046;13.796;2023-02-13T03:20:41;102521.28;;;9.31;70.15
62800;BME280;48842;51.046;13.796;2023-02-13T03:23:48;102527.34;;;9.30;70.29
62800;BME280;48842;51.046;13.796;2023-02-13T03:26:41;102530.88;;;9.30;70.28
62800;BME280;48842;51.046;13.796;2023-02-13T03:29:33;102523.91;;;9.31;70.36
62800;BME280;48842;51.046;13.796;2023-02-13T03:32:44;102532.56;;;9.30;70.40
62800;BME280;48842;51.046;13.796;2023-02-13T03:35:14;102522.09;;;9.30;70.22
62800;BME280;48842;51.046;13.796;2023-02-13T03:38:06;102528.16;;;9.29;70.62
62800;BME280;48842;51.046;13.796;2023-02-13T03:40:39;102529.97;;;9.30;70.78
62800;BME280;48842;51.046;13.796;2023-02-13T03:43:28;102522.94;;;9.29;70.64
62800;BME280;48842;51.046;13.796;2023-02-13T03:45:56;102525.53;;;9.29;70.59
62800;BME280;48842;51.046;13.796;2023-02-13T03:48:26;102525.53;;;9.29;70.83
62800;BME280;48842;51.046;13.796;2023-02-13T03:51:15;102523.91;;;9.31;70.70
62800;BME280;48842;51.046;13.796;2023-02-13T03:53:44;102529.22;;;9.32;70.71
62800;BME280;48842;51.046;13.796;2023-02-13T03:56:12;102528.25;;;9.30;70.69
62800;BME280;48842;51.046;13.796;2023-02-13T03:58:59;102530.03;;;9.31;71.21
62800;BME280;48842;51.046;13.796;2023-02-13T04:01:52;102521.34;;;9.32;71.29
62800;BME280;48842;51.046;13.796;2023-02-13T04:04:29;102528.47;;;9.35;71.48
62800;BME280;48842;51.046;13.796;2023-02-13T04:07:02;102524.03;;;9.34;71.60
62800;BME280;48842;51.046;13.796;2023-02-13T04:09:31;102525.78;;;9.33;71.36
62800;BME280;48842;51.046;13.796;2023-02-13T04:12:15;102530.16;;;9.34;71.82
62800;BME280;48842;51.046;13.796;2023-02-13T04:14:48;102529.41;;;9.37;71.78
62800;BME280;48842;51.046;13.796;2023-02-13T04:17:35;102533.75;;;9.36;71.63
62800;BME280;48842;51.046;13.796;2023-02-13T04:20:02;102531.22;;;9.38;71.69
62800;BME280;48842;51.046;13.796;2023-02-13T04:22:27;102520.75;;;9.38;71.86
62800;BME280;48842;51.046;13.796;2023-02-13T04:24:52;102528.59;;;9.38;71.82
62800;BME280;48842;51.046;13.796;2023-02-13T04:27:18;102520.59;;;9.35;71.53
62800;BME280;48842;51.046;13.796;2023-02-13T04:29:44;102518.00;;;9.35;71.84
62800;BME280;48842;51.046;13.796;2023-02-13T04:32:10;102523.28;;;9.36;71.82
62800;BME280;48842;51.046;13.796;2023-02-13T04:34:35;102525.06;;;9.37;71.72
62800;BME280;48842;51.046;13.796;2023-02-13T04:37:00;102520.75;;;9.38;71.79
62800;BME280;48842;51.046;13.796;2023-02-13T04:39:26;102517.31;;;9.39;71.69
62800;BME280;48842;51.046;13.796;2023-02-13T04:41:51;102522.53;;;9.39;71.98
62800;BME280;48842;51.046;13.796;2023-02-13T04:44:16;102519.00;;;9.38;71.72
62800;BME280;48842;51.046;13.796;2023-02-13T04:46:41;102526.72;;;9.35;71.72
62800;BME280;48842;51.046;13.796;2023-02-13T04:49:07;102524.78;;;9.31;71.90
62800;BME280;48842;51.046;13.796;2023-02-13T04:51:32;102520.47;;;9.32;72.02
62800;BME280;48842;51.046;13.796;2023-02-13T04:53:57;102520.25;;;9.27;72.12
62800;BME280;48842;51.046;13.796;2023-02-13T04:56:22;102527.22;;;9.26;72.19
62800;BME280;48842;51.046;13.796;2023-02-13T04:58:47;102513.19;;;9.24;72.13
62800;BME280;48842;51.046;13.796;2023-02-13T05:01:15;102519.91;;;9.19;72.24
62800;BME280;48842;51.046;13.796;2023-02-13T05:03:41;102524.72;;;9.10;72.43
62800;BME280;48842;51.046;13.796;2023-02-13T05:06:06;102521.00;;;9.05;72.79
62800;BME280;48842;51.046;13.796;2023-02-13T05:08:32;102525.22;;;9.01;72.51
62800;BME280;48842;51.046;13.796;2023-02-13T05:10:57;102522.25;;;8.94;72.91
62800;BME280;48842;51.046;13.796;2023-02-13T05:13:22;102519.25;;;8.86;72.85
62800;BME280;48842;51.046;13.796;2023-02-13T05:15:48;102513.00;;;8.82;73.28
62800;BME280;48842;51.046;13.796;2023-02-13T05:18:13;102512.09;;;8.82;73.53
62800;BME280;48842;51.046;13.796;2023-02-13T05:20:39;102514.56;;;8.79;73.70
62800;BME280;48842;51.046;13.796;2023-02-13T05:23:12;102518.84;;;8.77;73.91
62800;BME280;48842;51.046;13.796;2023-02-13T05:25:47;102523.25;;;8.78;73.94
62800;BME280;48842;51.046;13.796;2023-02-13T05:28:13;102527.69;;;8.80;73.67
62800;BME280;48842;51.046;13.796;2023-02-13T05:30:56;102527.78;;;8.82;73.78
62800;BME280;48842;51.046;13.796;2023-02-13T05:33:22;102526.22;;;8.85;73.92
62800;BME280;48842;51.046;13.796;2023-02-13T05:35:47;102521.06;;;8.87;73.82
62800;BME280;48842;51.046;13.796;2023-02-13T05:38:12;102526.16;;;8.84;74.11
62800;BME280;48842;51.046;13.796;2023-02-13T05:40:38;102517.50;;;8.85;73.73
62800;BME280;48842;51.046;13.796;2023-02-13T05:43:03;102517.63;;;8.88;74.09
62800;BME280;48842;51.046;13.796;2023-02-13T05:45:28;102520.44;;;8.93;74.12
62800;BME280;48842;51.046;13.796;2023-02-13T05:47:53;102519.78;;;8.97;73.83
62800;BME280;48842;51.046;13.796;2023-02-13T05:50:19;102520.78;;;9.00;73.77
62800;BME280;48842;51.046;13.796;2023-02-13T05:52:44;102516.56;;;9.02;73.48
62800;BME280;48842;51.046;13.796;2023-02-13T05:55:09;102521.59;;;8.99;73.61
62800;BME280;48842;51.046;13.796;2023-02-13T05:57:34;102518.94;;;8.98;73.52
62800;BME280;48842;51.046;13.796;2023-02-13T06:00:00;102524.16;;;8.98;73.57
62800;BME280;48842;51.046;13.796;2023-02-13T06:02:25;102518.94;;;8.98;73.63
62800;BME280;48842;51.046;13.796;2023-02-13T06:04:50;102519.78;;;8.97;73.62
62800;BME280;48842;51.046;13.796;2023-02-13T06:07:16;102532.84;;;8.97;73.60
62800;BME280;48842;51.046;13.796;2023-02-13T06:09:41;102525.94;;;8.99;73.62
62800;BME280;48842;51.046;13.796;2023-02-13T06:12:06;102524.28;;;9.01;73.78
62800;BME280;48842;51.046;13.796;2023-02-13T06:14:31;102522.53;;;9.00;73.44
62800;BME280;48842;51.046;13.796;2023-02-13T06:16:57;102535.59;;;9.00;73.14
62800;BME280;48842;51.046;13.796;2023-02-13T06:19:22;102524.16;;;8.98;73.36
62800;BME280;48842;51.046;13.796;2023-02-13T06:21:47;102531.19;;;8.99;73.46
62800;BME280;48842;51.046;13.796;2023-02-13T06:24:12;102530.44;;;9.01;73.48
62800;BME280;48842;51.046;13.796;2023-02-13T06:26:38;102532.13;;;9.01;73.50
62800;BME280;48842;51.046;13.796;2023-02-13T06:29:03;102538.22;;;9.00;73.34
62800;BME280;48842;51.046;13.796;2023-02-13T06:31:28;102539.03;;;8.99;73.14
62800;BME280;48842;51.046;13.796;2023-02-13T06:33:53;102539.91;;;8.99;73.35
62800;BME280;48842;51.046;13.796;2023-02-13T06:36:18;102540.97;;;9.03;73.26
62800;BME280;48842;51.046;13.796;2023-02-13T06:38:44;102541.84;;;9.03;73.05
62800;BME280;48842;51.046;13.796;2023-02-13T06:41:09;102542.75;;;9.04;73.01
62800;BME280;48842;51.046;13.796;2023-02-13T06:43:34;102547.22;;;9.06;73.27
62800;BME280;48842;51.046;13.796;2023-02-13T06:46:04;102551.69;;;9.09;73.28
62800;BME280;48842;51.046;13.796;2023-02-13T06:48:29;102549.06;;;9.09;73.11
62800;BME280;48842;51.046;13.796;2023-02-13T06:50:54;102555.13;;;9.08;72.79
62800;BME280;48842;51.046;13.796;2023-02-13T06:53:20;102557.66;;;9.06;72.82
62800;BME280;48842;51.046;13.796;2023-02-13T06:55:51;102562.69;;;9.02;72.48
62800;BME280;48842;51.046;13.796;2023-02-13T06:58:18;102558.06;;;8.96;72.84
62800;BME280;48842;51.046;13.796;2023-02-13T07:00:43;102567.63;;;8.96;72.62
62800;BME280;48842;51.046;13.796;2023-02-13T07:03:09;102569.50;;;8.98;72.74
62800;BME280;48842;51.046;13.796;2023-02-13T07:05:34;102569.44;;;8.97;72.67
62800;BME280;48842;51.046;13.796;2023-02-13T07:07:59;102576.28;;;8.95;72.62
62800;BME280;48842;51.046;13.796;2023-02-13T07:10:24;102572.72;;;8.93;72.48
62800;BME280;48842;51.046;13.796;2023-02-13T07:12:50;102572.59;;;8.89;72.44
62800;BME280;48842;51.046;13.796;2023-02-13T07:15:15;102568.16;;;8.88;72.85
62800;BME280;48842;51.046;13.796;2023-02-13T07:17:41;102571.81;;;8.92;72.69
62800;BME280;48842;51.046;13.796;2023-02-13T07:20:06;102569.31;;;8.94;72.62
62800;BME280;48842;51.046;13.796;2023-02-13T07:22:32;102573.69;;;8.95;72.34
62800;BME280;48842;51.046;13.796;2023-02-13T07:24:58;102570.19;;;8.94;72.29
62800;BME280;48842;51.046;13.796;2023-02-13T07:27:24;102580.50;;;8.91;72.52
62800;BME280;48842;51.046;13.796;2023-02-13T07:29:50;102577.97;;;8.93;72.30
62800;BME280;48842;51.046;13.796;2023-02-13T07:32:15;102578.09;;;8.96;72.58
62800;BME280;48842;51.046;13.796;2023-02-13T07:34:40;102573.00;;;8.99;72.53
62800;BME280;48842;51.046;13.796;2023-02-13T07:37:05;102569.72;;;9.03;72.34
62800;BME280;48842;51.046;13.796;2023-02-13T07:39:31;102569.78;;;9.04;72.00
62800;BME280;48842;51.046;13.796;2023-02-13T07:41:56;102573.28;;;9.05;72.09
62800;BME280;48842;51.046;13.796;2023-02-13T07:44:21;102564.56;;;9.04;71.81
62800;BME280;48842;51.046;13.796;2023-02-13T07:46:46;102568.97;;;9.05;72.06
62800;BME280;48842;51.046;13.796;2023-02-13T07:49:12;102573.44;;;9.08;72.08
62800;BME280;48842;51.046;13.796;2023-02-13T07:51:37;102573.44;;;9.08;72.24
62800;BME280;48842;51.046;13.796;2023-02-13T07:54:02;102575.09;;;9.06;71.99
62800;BME280;48842;51.046;13.796;2023-02-13T07:56:27;102582.03;;;9.05;71.88
62800;BME280;48842;51.046;13.796;2023-02-13T07:58:53;102574.19;;;9.05;72.15
62800;BME280;48842;51.046;13.796;2023-02-13T08:01:18;102582.84;;;9.04;71.93
62800;BME280;48842;51.046;13.796;2023-02-13T08:03:47;102573.28;;;9.05;71.67
62800;BME280;48842;51.046;13.796;2023-02-13T08:06:15;102582.78;;;9.03;71.68
62800;BME280;48842;51.046;13.796;2023-02-13T08:08:40;102578.22;;;8.99;71.59
62800;BME280;48842;51.046;13.796;2023-02-13T08:11:11;102588.56;;;8.96;71.40
62800;BME280;48842;51.046;13.796;2023-02-13T08:13:59;102584.88;;;8.92;71.30
62800;BME280;48842;51.046;13.796;2023-02-13T08:16:24;102592.81;;;8.94;71.71
62800;BME280;48842;51.046;13.796;2023-02-13T08:18:49;102590.94;;;8.91;71.51
62800;BME280;48842;51.046;13.796;2023-02-13T08:21:14;102594.38;;;8.90;71.28
62800;BME280;48842;51.046;13.796;2023-02-13T08:23:40;102594.31;;;8.88;71.52
62800;BME280;48842;51.046;13.796;2023-02-13T08:26:05;102591.56;;;8.85;71.49
62800;BME280;48842;51.046;13.796;2023-02-13T08:28:30;102588.88;;;8.84;71.30
62800;BME280;48842;51.046;13.796;2023-02-13T08:30:55;102582.91;;;8.86;71.82
62800;BME280;48842;51.046;13.796;2023-02-13T08:33:21;102591.84;;;8.91;71.50
62800;BME280;48842;51.046;13.796;2023-02-13T08:35:46;102595.72;;;9.00;71.48
62800;BME280;48842;51.046;13.796;2023-02-13T08:38:11;102599.50;;;9.06;71.16
62800;BME280;48842;51.046;13.796;2023-02-13T08:40:36;102594.34;;;9.08;71.19
62800;BME280;48842;51.046;13.796;2023-02-13T08:43:03;102587.47;;;9.10;71.12
62800;BME280;48842;51.046;13.796;2023-02-13T08:45:30;102597.03;;;9.09;70.79
62800;BME280;48842;51.046;13.796;2023-02-13T08:47:59;102598.91;;;9.12;70.75
62800;BME280;48842;51.046;13.796;2023-02-13T08:50:25;102605.25;;;9.17;71.02
62800;BME280;48842;51.046;13.796;2023-02-13T08:52:51;102590.59;;;9.21;70.78
62800;BME280;48842;51.046;13.796;2023-02-13T08:55:16;102594.94;;;9.20;70.59
62800;BME280;48842;51.046;13.796;2023-02-13T08:57:42;102595.94;;;9.24;70.33
62800;BME280;48842;51.046;13.796;2023-02-13T09:00:08;102593.41;;;9.25;70.51
62800;BME280;48842;51.046;13.796;2023-02-13T09:02:33;102596.03;;;9.25;69.99
62800;BME280;48842;51.046;13.796;2023-02-13T09:04:58;102602.91;;;9.23;69.93
62800;BME280;48842;51.046;13.796;2023-02-13T09:07:23;102603.72;;;9.22;69.77
62800;BME280;48842;51.046;13.796;2023-02-13T09:09:49;102609.88;;;9.23;69.76
62800;BME280;48842;51.046;13.796;2023-02-13T09:12:14;102606.28;;;9.21;69.81
62800;BME280;48842;51.046;13.796;2023-02-13T09:14:40;102609.69;;;9.20;69.66
62800;BME280;48842;51.046;13.796;2023-02-13T09:17:05;102617.47;;;9.18;69.72
62800;BME280;48842;51.046;13.796;2023-02-13T09:19:30;102614.13;;;9.21;69.71
62800;BME280;48842;51.046;13.796;2023-02-13T09:21:55;102613.38;;;9.23;69.79
62800;BME280;48842;51.046;13.796;2023-02-13T09:24:21;102612.75;;;9.29;69.81
62800;BME280;48842;51.046;13.796;2023-02-13T09:26:46;102612.16;;;9.35;69.61
62800;BME280;48842;51.046;13.796;2023-02-13T09:29:11;102609.69;;;9.38;69.51
62800;BME280;48842;51.046;13.796;2023-02-13T09:31:36;102609.13;;;9.45;69.78
62800;BME280;48842;51.046;13.796;2023-02-13T09:34:02;102606.78;;;9.51;69.12
62800;BME280;48842;51.046;13.796;2023-02-13T09:36:27;102608.59;;;9.52;68.92
62800;BME280;48842;51.046;13.796;2023-02-13T09:38:54;102603.28;;;9.51;68.56
62800;BME280;48842;51.046;13.796;2023-02-13T09:41:41;102602.31;;;9.49;68.78
62800;BME280;48842;51.046;13.796;2023-02-13T09:44:24;102598.25;;;9.55;68.98
62800;BME280;48842;51.046;13.796;2023-02-13T09:47:06;102614.50;;;9.68;69.04
62800;BME280;48842;51.046;13.796;2023-02-13T09:49:39;102617.53;;;9.77;68.53
62800;BME280;48842;51.046;13.796;2023-02-13T09:52:07;102617.53;;;9.77;68.35
62800;BME280;48842;51.046;13.796;2023-02-13T09:54:33;102618.28;;;9.74;68.27
62800;BME280;48842;51.046;13.796;2023-02-13T09:57:02;102621.66;;;9.72;68.16
62800;BME280;48842;51.046;13.796;2023-02-13T09:59:55;102627.03;;;9.75;67.79
62800;BME280;48842;51.046;13.796;2023-02-13T10:02:52;102619.31;;;9.78;67.77
62800;BME280;48842;51.046;13.796;2023-02-13T10:05:33;102613.31;;;9.81;67.68
62800;BME280;48842;51.046;13.796;2023-02-13T10:10:52;102622.22;;;9.84;67.31
62800;BME280;48842;51.046;13.796;2023-02-13T10:16:06;102623.31;;;9.89;67.18
62800;BME280;48842;51.046;13.796;2023-02-13T10:18:47;102623.75;;;10.00;66.98
62800;BME280;48842;51.046;13.796;2023-02-13T10:21:14;102619.97;;;10.13;66.88
62800;BME280;48842;51.046;13.796;2023-02-13T10:23:58;102620.31;;;10.21;66.55
62800;BME280;48842;51.046;13.796;2023-02-13T10:26:27;102616.09;;;10.24;66.35
62800;BME280;48842;51.046;13.796;2023-02-13T10:29:20;102607.66;;;10.31;66.44
62800;BME280;48842;51.046;13.796;2023-02-13T10:32:08;102612.28;;;10.37;66.32
62800;BME280;48842;51.046;13.796;2023-02-13T10:34:41;102609.59;;;10.36;65.77
62800;BME280;48842;51.046;13.796;2023-02-13T10:37:17;102603.41;;;10.34;65.31
62800;BME280;48842;51.046;13.796;2023-02-13T10:39:46;102601.88;;;10.39;65.54
62800;BME280;48842;51.046;13.796;2023-02-13T10:45:05;102592.81;;;10.52;64.70
62800;BME280;48842;51.046;13.796;2023-02-13T10:50:26;102583.72;;;10.64;64.62
62800;BME280;48842;51.046;13.796;2023-02-13T10:56:19;102585.41;;;10.85;64.29
62800;BME280;48842;51.046;13.796;2023-02-13T11:01:53;102574.91;;;10.85;63.47
62800;BME280;48842;51.046;13.796;2023-02-13T11:04:20;102567.97;;;10.87;62.75
62800;BME280;48842;51.046;13.796;2023-02-13T11:06:54;102568.81;;;10.86;62.53
62800;BME280;48842;51.046;13.796;2023-02-13T11:09:20;102566.06;;;10.83;62.61
62800;BME280;48842;51.046;13.796;2023-02-13T11:11:45;102571.19;;;10.80;62.82
62800;BME280;48842;51.046;13.796;2023-02-13T11:14:20;102573.53;;;10.72;62.15
62800;BME280;48842;51.046;13.796;2023-02-13T11:16:50;102567.72;;;10.58;61.68
62800;BME280;48842;51.046;13.796;2023-02-13T11:19:45;102573.19;;;10.42;60.88
62800;BME280;48842;51.046;13.796;2023-02-13T11:22:14;102561.47;;;10.34;61.98
62800;BME280;48842;51.046;13.796;2023-02-13T11:24:58;102576.28;;;10.33;62.15
62800;BME280;48842;51.046;13.796;2023-02-13T11:27:29;102563.28;;;10.35;62.17
62800;BME280;48842;51.046;13.796;2023-02-13T11:29:58;102560.50;;;10.31;62.08
62800;BME280;48842;51.046;13.796;2023-02-13T11:32:29;102567.47;;;10.31;62.32
62800;BME280;48842;51.046;13.796;2023-02-13T11:34:54;102558.56;;;10.27;62.01
62800;BME280;48842;51.046;13.796;2023-02-13T11:37:28;102562.00;;;10.26;61.65
62800;BME280;48842;51.046;13.796;2023-02-13T11:39:59;102567.25;;;10.26;62.07
62800;BME280;48842;51.046;13.796;2023-02-13T11:44:54;102562.53;;;10.18;61.95
62800;BME280;48842;51.046;13.796;2023-02-13T11:49:55;102553.66;;;10.14;62.04
62800;BME280;48842;51.046;13.796;2023-02-13T11:52:56;102554.47;;;10.13;61.58
62800;BME280;48842;51.046;13.796;2023-02-13T11:55:34;102550.34;;;10.18;62.27
62800;BME280;48842;51.046;13.796;2023-02-13T11:58:20;102542.63;;;10.21;61.87
62800;BME280;48842;51.046;13.796;2023-02-13T12:00:47;102536.69;;;10.25;61.82
62800;BME280;48842;51.046;13.796;2023-02-13T12:03:30;102550.03;;;10.31;61.93
62800;BME280;48842;51.046;13.796;2023-02-13T12:08:36;102537.59;;;10.47;61.95
62800;BME280;48842;51.046;13.796;2023-02-13T12:11:11;102538.47;;;10.47;61.53
62800;BME280;48842;51.046;13.796;2023-02-13T12:13:38;102540.97;;;10.44;61.34
62800;BME280;48842;51.046;13.796;2023-02-13T12:16:10;102537.19;;;10.38;60.95
62800;BME280;48842;51.046;13.796;2023-02-13T12:18:43;102529.34;;;10.38;60.85
62800;BME280;48842;51.046;13.796;2023-02-13T12:24:20;102525.44;;;10.49;60.76
62800;BME280;48842;51.046;13.796;2023-02-13T12:29:55;102516.09;;;10.56;60.55
62800;BME280;48842;51.046;13.796;2023-02-13T12:32:48;102512.84;;;10.63;60.50
62800;BME280;48842;51.046;13.796;2023-02-13T12:35:27;102512.19;;;10.69;60.53
62800;BME280;48842;51.046;13.796;2023-02-13T12:43:48;102498.16;;;10.67;60.34
62800;BME280;48842;51.046;13.796;2023-02-13T12:46:51;102500.88;;;10.70;59.91
62800;BME280;48842;51.046;13.796;2023-02-13T12:55:01;102497.38;;;10.69;59.60
62800;BME280;48842;51.046;13.796;2023-02-13T13:00:31;102501.59;;;10.65;59.55
62800;BME280;48842;51.046;13.796;2023-02-13T13:03:31;102501.53;;;10.64;59.54
62800;BME280;48842;51.046;13.796;2023-02-13T13:06:09;102495.53;;;10.67;58.83
62800;BME280;48842;51.046;13.796;2023-02-13T13:08:55;102491.34;;;10.72;58.95
62800;BME280;48842;51.046;13.796;2023-02-13T13:14:48;102492.31;;;10.74;58.88
62800;BME280;48842;51.046;13.796;2023-02-13T13:22:50;102487.84;;;10.71;58.26
62800;BME280;48842;51.046;13.796;2023-02-13T13:25:34;102493.13;;;10.73;58.51
62800;BME280;48842;51.046;13.796;2023-02-13T13:28:14;102494.59;;;10.64;58.22
62800;BME280;48842;51.046;13.796;2023-02-13T13:30:41;102494.31;;;10.58;58.15
62800;BME280;48842;51.046;13.796;2023-02-13T13:33:15;102499.47;;;10.55;58.35
62800;BME280;48842;51.046;13.796;2023-02-13T13:35:45;102493.34;;;10.55;58.41
62800;BME280;48842;51.046;13.796;2023-02-13T13:38:19;102498.97;;;10.65;58.52
62800;BME280;48842;51.046;13.796;2023-02-13T13:41:10;102499.59;;;10.81;58.16
62800;BME280;48842;51.046;13.796;2023-02-13T13:44:02;102490.63;;;10.98;57.34
62800;BME280;48842;51.046;13.796;2023-02-13T13:46:49;102488.78;;;11.20;57.59
62800;BME280;48842;51.046;13.796;2023-02-13T13:52:23;102494.97;;;11.22;56.23
62800;BME280;48842;51.046;13.796;2023-02-13T13:54:49;102498.81;;;11.08;56.28
62800;BME280;48842;51.046;13.796;2023-02-13T14:05:31;102503.13;;;10.83;57.07
62800;BME280;48842;51.046;13.796;2023-02-13T14:08:02;102503.81;;;10.77;57.09
62800;BME280;48842;51.046;13.796;2023-02-13T14:31:34;102494.69;;;10.90;56.04
62800;BME280;48842;51.046;13.796;2023-02-13T14:34:06;102495.94;;;10.77;55.63
62800;BME280;48842;51.046;13.796;2023-02-13T14:36:34;102493.97;;;10.72;56.13
62800;BME280;48842;51.046;13.796;2023-02-13T14:39:06;102492.78;;;10.63;56.32
62800;BME280;48842;51.046;13.796;2023-02-13T14:44:37;102498.34;;;10.48;56.72
62800;BME280;48842;51.046;13.796;2023-02-13T14:47:16;102490.03;;;10.38;56.91
62800;BME280;48842;51.046;13.796;2023-02-13T14:49:44;102490.34;;;10.24;57.15
62800;BME280;48842;51.046;13.796;2023-02-13T14:52:17;102484.69;;;10.13;57.46
62800;BME280;48842;51.046;13.796;2023-02-13T14:54:49;102481.59;;;10.03;57.90
62800;BME280;48842;51.046;13.796;2023-02-13T14:57:51;102485.00;;;10.00;58.29